sensor_id;sensor_type;location;lat;lon;timestamp;temperature;humidity
11387;DHT22;5748;53.102;8.456;2023-06-10T00:02:06;21.20;36.00
11387;DHT22;5748;53.102;8.456;2023-06-10T00:04:33;21.10;35.90
11387;DHT22;5748;53.102;8.456;2023-06-10T00:07:02;21.10;35.90
11387;DHT22;5748;53.102;8.456;2023-06-10T00:09:29;21.00;36.70
11387;DHT22;5748;53.102;8.456;2023-06-10T00:11:56;21.00;36.10
11387;DHT22;5748;53.102;8.456;2023-06-10T00:14:25;21.00;36.20
11387;DHT22;5748;53.102;8.456;2023-06-10T00:16:53;21.20;36.60
11387;DHT22;5748;53.102;8.456;2023-06-10T00:19:21;21.60;37.20
11387;DHT22;5748;53.102;8.456;2023-06-10T00:21:51;20.90;36.50
11387;DHT22;5748;53.102;8.456;2023-06-10T00:24:18;20.80;36.60
11387;DHT22;5748;53.102;8.456;2023-06-10T00:26:45;20.80;36.70
11387;DHT22;5748;53.102;8.456;2023-06-10T00:29:12;20.70;36.80
11387;DHT22;5748;53.102;8.456;2023-06-10T00:31:40;20.70;36.80
11387;DHT22;5748;53.102;8.456;2023-06-10T00:34:08;22.00;38.10
11387;DHT22;5748;53.102;8.456;2023-06-10T00:36:35;20.60;37.30
11387;DHT22;5748;53.102;8.456;2023-06-10T00:39:02;21.30;37.80
11387;DHT22;5748;53.102;8.456;2023-06-10T00:41:30;21.10;37.80
11387;DHT22;5748;53.102;8.456;2023-06-10T00:43:57;22.40;39.00
11387;DHT22;5748;53.102;8.456;2023-06-10T00:46:25;20.40;37.50
11387;DHT22;5748;53.102;8.456;2023-06-10T00:48:53;20.40;37.80
11387;DHT22;5748;53.102;8.456;2023-06-10T00:51:22;20.30;37.80
11387;DHT22;5748;53.102;8.456;2023-06-10T00:53:49;20.30;37.80
11387;DHT22;5748;53.102;8.456;2023-06-10T00:56:16;20.30;38.10
11387;DHT22;5748;53.102;8.456;2023-06-10T00:58:43;20.20;38.10
11387;DHT22;5748;53.102;8.456;2023-06-10T01:01:11;20.20;38.30
11387;DHT22;5748;53.102;8.456;2023-06-10T01:03:38;20.10;38.00
11387;DHT22;5748;53.102;8.456;2023-06-10T01:06:11;20.10;38.70
11387;DHT22;5748;53.102;8.456;2023-06-10T01:08:52;20.10;39.20
11387;DHT22;5748;53.102;8.456;2023-06-10T01:11:26;20.10;39.50
11387;DHT22;5748;53.102;8.456;2023-06-10T01:13:56;20.00;39.40
11387;DHT22;5748;53.102;8.456;2023-06-10T01:16:25;20.00;39.10
11387;DHT22;5748;53.102;8.456;2023-06-10T01:18:52;19.90;39.10
11387;DHT22;5748;53.102;8.456;2023-06-10T01:21:22;19.90;39.10
11387;DHT22;5748;53.102;8.456;2023-06-10T01:23:51;19.80;39.30
11387;DHT22;5748;53.102;8.456;2023-06-10T01:26:20;19.80;39.60
11387;DHT22;5748;53.102;8.456;2023-06-10T01:28:57;19.80;39.80
11387;DHT22;5748;53.102;8.456;2023-06-10T01:31:32;19.70;40.10
11387;DHT22;5748;53.102;8.456;2023-06-10T01:34:06;19.70;40.30
11387;DHT22;5748;53.102;8.456;2023-06-10T01:36:37;19.70;40.30
11387;DHT22;5748;53.102;8.456;2023-06-10T01:39:05;19.70;40.30
11387;DHT22;5748;53.102;8.456;2023-06-10T01:41:35;19.60;40.20
11387;DHT22;5748;53.102;8.456;2023-06-10T01:44:03;19.60;40.40
11387;DHT22;5748;53.102;8.456;2023-06-10T01:46:30;19.60;40.30
11387;DHT22;5748;53.102;8.456;2023-06-10T01:48:57;19.50;40.50
11387;DHT22;5748;53.102;8.456;2023-06-10T01:51:24;19.50;40.50
11387;DHT22;5748;53.102;8.456;2023-06-10T01:53:52;19.40;40.60
11387;DHT22;5748;53.102;8.456;2023-06-10T01:56:19;19.50;41.00
11387;DHT22;5748;53.102;8.456;2023-06-10T01:58:46;19.40;40.90
11387;DHT22;5748;53.102;8.456;2023-06-10T02:01:13;19.40;41.20
11387;DHT22;5748;53.102;8.456;2023-06-10T02:03:40;19.30;40.80
11387;DHT22;5748;53.102;8.456;2023-06-10T02:06:07;19.30;41.20
11387;DHT22;5748;53.102;8.456;2023-06-10T02:08:34;19.30;41.40
11387;DHT22;5748;53.102;8.456;2023-06-10T02:11:02;19.20;41.40
11387;DHT22;5748;53.102;8.456;2023-06-10T02:13:29;19.20;41.60
11387;DHT22;5748;53.102;8.456;2023-06-10T02:15:56;19.20;41.50
11387;DHT22;5748;53.102;8.456;2023-06-10T02:18:23;19.20;41.70
11387;DHT22;5748;53.102;8.456;2023-06-10T02:20:52;19.10;41.60
11387;DHT22;5748;53.102;8.456;2023-06-10T02:23:19;19.10;41.80
11387;DHT22;5748;53.102;8.456;2023-06-10T02:25:46;19.10;42.00
11387;DHT22;5748;53.102;8.456;2023-06-10T02:28:15;19.00;41.90
11387;DHT22;5748;53.102;8.456;2023-06-10T02:30:42;20.80;43.90
11387;DHT22;5748;53.102;8.456;2023-06-10T02:33:09;19.00;42.10
11387;DHT22;5748;53.102;8.456;2023-06-10T02:35:36;19.00;42.30
11387;DHT22;5748;53.102;8.456;2023-06-10T02:38:03;18.90;42.30
11387;DHT22;5748;53.102;8.456;2023-06-10T02:40:30;18.90;42.40
11387;DHT22;5748;53.102;8.456;2023-06-10T02:42:58;18.90;42.50
11387;DHT22;5748;53.102;8.456;2023-06-10T02:45:26;18.90;42.50
11387;DHT22;5748;53.102;8.456;2023-06-10T02:47:53;18.90;42.80
11387;DHT22;5748;53.102;8.456;2023-06-10T02:50:20;18.80;42.50
11387;DHT22;5748;53.102;8.456;2023-06-10T02:52:47;18.80;42.80
11387;DHT22;5748;53.102;8.456;2023-06-10T02:55:15;18.80;42.80
11387;DHT22;5748;53.102;8.456;2023-06-10T02:57:42;18.70;42.80
11387;DHT22;5748;53.102;8.456;2023-06-10T03:00:09;18.70;43.00
11387;DHT22;5748;53.102;8.456;2023-06-10T03:02:40;18.60;43.20
11387;DHT22;5748;53.102;8.456;2023-06-10T03:05:08;18.60;43.30
11387;DHT22;5748;53.102;8.456;2023-06-10T03:07:36;18.60;43.30
11387;DHT22;5748;53.102;8.456;2023-06-10T03:10:04;18.60;43.60
11387;DHT22;5748;53.102;8.456;2023-06-10T03:12:32;18.50;43.60
11387;DHT22;5748;53.102;8.456;2023-06-10T03:14:59;18.60;43.80
11387;DHT22;5748;53.102;8.456;2023-06-10T03:17:26;18.50;43.70
11387;DHT22;5748;53.102;8.456;2023-06-10T03:19:54;18.60;44.10
11387;DHT22;5748;53.102;8.456;2023-06-10T03:22:21;19.20;45.10
11387;DHT22;5748;53.102;8.456;2023-06-10T03:24:48;18.60;44.40
11387;DHT22;5748;53.102;8.456;2023-06-10T03:27:16;18.60;44.40
11387;DHT22;5748;53.102;8.456;2023-06-10T03:29:44;18.60;44.50
11387;DHT22;5748;53.102;8.456;2023-06-10T03:32:10;18.80;44.50
11387;DHT22;5748;53.102;8.456;2023-06-10T03:34:37;18.80;44.10
11387;DHT22;5748;53.102;8.456;2023-06-10T03:37:06;18.70;44.50
11387;DHT22;5748;53.102;8.456;2023-06-10T03:39:33;21.40;47.40
11387;DHT22;5748;53.102;8.456;2023-06-10T03:42:00;18.80;44.80
11387;DHT22;5748;53.102;8.456;2023-06-10T03:44:27;18.80;44.80
11387;DHT22;5748;53.102;8.456;2023-06-10T03:46:54;18.80;45.10
11387;DHT22;5748;53.102;8.456;2023-06-10T03:49:21;18.70;45.10
11387;DHT22;5748;53.102;8.456;2023-06-10T03:51:52;18.80;45.10
11387;DHT22;5748;53.102;8.456;2023-06-10T03:54:21;19.10;45.20
11387;DHT22;5748;53.102;8.456;2023-06-10T03:56:48;18.90;45.40
11387;DHT22;5748;53.102;8.456;2023-06-10T03:59:15;18.90;45.20
11387;DHT22;5748;53.102;8.456;2023-06-10T04:01:42;19.00;45.40
11387;DHT22;5748;53.102;8.456;2023-06-10T04:04:11;18.90;45.20
11387;DHT22;5748;53.102;8.456;2023-06-10T04:06:40;19.00;45.50
11387;DHT22;5748;53.102;8.456;2023-06-10T04:09:09;19.00;45.20
11387;DHT22;5748;53.102;8.456;2023-06-10T04:11:37;18.90;45.20
11387;DHT22;5748;53.102;8.456;2023-06-10T04:14:04;18.90;45.50
11387;DHT22;5748;53.102;8.456;2023-06-10T04:16:31;19.00;45.60
11387;DHT22;5748;53.102;8.456;2023-06-10T04:18:59;18.90;45.30
11387;DHT22;5748;53.102;8.456;2023-06-10T04:21:25;19.00;45.40
11387;DHT22;5748;53.102;8.456;2023-06-10T04:23:52;19.10;45.60
11387;DHT22;5748;53.102;8.456;2023-06-10T04:26:20;19.00;45.70
11387;DHT22;5748;53.102;8.456;2023-06-10T04:28:48;19.10;45.70
11387;DHT22;5748;53.102;8.456;2023-06-10T04:31:15;19.10;45.80
11387;DHT22;5748;53.102;8.456;2023-06-10T04:33:42;19.10;45.40
11387;DHT22;5748;53.102;8.456;2023-06-10T04:36:09;19.10;45.90
11387;DHT22;5748;53.102;8.456;2023-06-10T04:38:36;19.10;45.80
11387;DHT22;5748;53.102;8.456;2023-06-10T04:41:03;19.10;45.90
11387;DHT22;5748;53.102;8.456;2023-06-10T04:43:30;19.20;45.90
11387;DHT22;5748;53.102;8.456;2023-06-10T04:45:58;19.20;46.00
11387;DHT22;5748;53.102;8.456;2023-06-10T04:48:25;19.20;46.00
11387;DHT22;5748;53.102;8.456;2023-06-10T04:50:52;19.20;45.90
11387;DHT22;5748;53.102;8.456;2023-06-10T04:53:20;19.20;46.10
11387;DHT22;5748;53.102;8.456;2023-06-10T04:55:47;19.20;46.00
11387;DHT22;5748;53.102;8.456;2023-06-10T04:58:14;19.30;46.20
11387;DHT22;5748;53.102;8.456;2023-06-10T05:00:41;19.30;46.00
11387;DHT22;5748;53.102;8.456;2023-06-10T05:03:10;19.30;46.00
11387;DHT22;5748;53.102;8.456;2023-06-10T05:05:37;19.30;46.20
11387;DHT22;5748;53.102;8.456;2023-06-10T05:08:04;19.30;46.00
11387;DHT22;5748;53.102;8.456;2023-06-10T05:10:31;19.30;46.10
11387;DHT22;5748;53.102;8.456;2023-06-10T05:12:59;19.30;46.10
11387;DHT22;5748;53.102;8.456;2023-06-10T05:15:26;19.30;46.30
11387;DHT22;5748;53.102;8.456;2023-06-10T05:17:53;19.30;46.40
11387;DHT22;5748;53.102;8.456;2023-06-10T05:20:21;19.40;46.50
11387;DHT22;5748;53.102;8.456;2023-06-10T05:22:48;19.30;46.40
11387;DHT22;5748;53.102;8.456;2023-06-10T05:25:15;20.60;47.40
11387;DHT22;5748;53.102;8.456;2023-06-10T05:27:42;19.40;46.40
11387;DHT22;5748;53.102;8.456;2023-06-10T05:30:10;19.30;46.40
11387;DHT22;5748;53.102;8.456;2023-06-10T05:32:37;19.30;46.50
11387;DHT22;5748;53.102;8.456;2023-06-10T05:35:04;19.40;46.40
11387;DHT22;5748;53.102;8.456;2023-06-10T05:37:34;19.30;46.60
11387;DHT22;5748;53.102;8.456;2023-06-10T05:40:02;19.30;46.80
11387;DHT22;5748;53.102;8.456;2023-06-10T05:42:30;19.30;46.70
11387;DHT22;5748;53.102;8.456;2023-06-10T05:44:57;19.30;46.70
11387;DHT22;5748;53.102;8.456;2023-06-10T05:47:24;19.20;47.90
11387;DHT22;5748;53.102;8.456;2023-06-10T05:49:51;19.20;47.80
11387;DHT22;5748;53.102;8.456;2023-06-10T05:52:18;19.30;47.50
11387;DHT22;5748;53.102;8.456;2023-06-10T05:54:47;19.30;47.50
11387;DHT22;5748;53.102;8.456;2023-06-10T05:57:14;19.40;47.50
11387;DHT22;5748;53.102;8.456;2023-06-10T05:59:40;19.50;47.40
11387;DHT22;5748;53.102;8.456;2023-06-10T06:02:07;19.40;47.40
11387;DHT22;5748;53.102;8.456;2023-06-10T06:04:34;19.40;47.30
11387;DHT22;5748;53.102;8.456;2023-06-10T06:07:01;19.50;47.40
11387;DHT22;5748;53.102;8.456;2023-06-10T06:09:28;19.50;47.50
11387;DHT22;5748;53.102;8.456;2023-06-10T06:11:56;19.50;47.50
11387;DHT22;5748;53.102;8.456;2023-06-10T06:14:23;19.60;47.70
11387;DHT22;5748;53.102;8.456;2023-06-10T06:16:50;20.80;48.60
11387;DHT22;5748;53.102;8.456;2023-06-10T06:19:17;22.00;49.60
11387;DHT22;5748;53.102;8.456;2023-06-10T06:21:44;19.80;47.60
11387;DHT22;5748;53.102;8.456;2023-06-10T06:24:11;19.80;47.70
11387;DHT22;5748;53.102;8.456;2023-06-10T06:26:38;19.90;47.60
11387;DHT22;5748;53.102;8.456;2023-06-10T06:29:06;20.00;47.80
11387;DHT22;5748;53.102;8.456;2023-06-10T06:31:33;20.10;48.20
11387;DHT22;5748;53.102;8.456;2023-06-10T06:36:27;20.10;47.40
11387;DHT22;5748;53.102;8.456;2023-06-10T06:38:54;20.20;47.90
11387;DHT22;5748;53.102;8.456;2023-06-10T06:41:21;20.30;48.00
11387;DHT22;5748;53.102;8.456;2023-06-10T06:43:48;20.50;47.70
11387;DHT22;5748;53.102;8.456;2023-06-10T06:46:17;20.40;48.20
11387;DHT22;5748;53.102;8.456;2023-06-10T06:48:43;20.50;48.30
11387;DHT22;5748;53.102;8.456;2023-06-10T06:51:10;20.70;48.20
11387;DHT22;5748;53.102;8.456;2023-06-10T06:53:37;20.90;48.30
11387;DHT22;5748;53.102;8.456;2023-06-10T06:56:09;20.80;48.20
11387;DHT22;5748;53.102;8.456;2023-06-10T06:58:36;20.90;48.20
11387;DHT22;5748;53.102;8.456;2023-06-10T07:01:03;20.90;48.20
11387;DHT22;5748;53.102;8.456;2023-06-10T07:03:32;21.10;48.30
11387;DHT22;5748;53.102;8.456;2023-06-10T07:05:59;21.10;48.30
11387;DHT22;5748;53.102;8.456;2023-06-10T07:08:26;21.20;48.30
11387;DHT22;5748;53.102;8.456;2023-06-10T07:10:53;23.80;50.40
11387;DHT22;5748;53.102;8.456;2023-06-10T07:13:20;21.50;48.60
11387;DHT22;5748;53.102;8.456;2023-06-10T07:15:47;21.70;48.80
11387;DHT22;5748;53.102;8.456;2023-06-10T07:18:15;22.20;49.70
11387;DHT22;5748;53.102;8.456;2023-06-10T07:20:44;22.20;49.40
11387;DHT22;5748;53.102;8.456;2023-06-10T07:23:11;22.60;49.20
11387;DHT22;5748;53.102;8.456;2023-06-10T07:25:38;22.80;49.00
11387;DHT22;5748;53.102;8.456;2023-06-10T07:28:05;23.10;49.10
11387;DHT22;5748;53.102;8.456;2023-06-10T07:30:31;23.30;48.90
11387;DHT22;5748;53.102;8.456;2023-06-10T07:32:58;23.70;48.90
11387;DHT22;5748;53.102;8.456;2023-06-10T07:35:26;23.80;48.30
11387;DHT22;5748;53.102;8.456;2023-06-10T07:37:54;24.00;48.00
11387;DHT22;5748;53.102;8.456;2023-06-10T07:40:21;24.00;47.80
11387;DHT22;5748;53.102;8.456;2023-06-10T07:42:48;24.20;47.80
11387;DHT22;5748;53.102;8.456;2023-06-10T07:45:15;24.20;47.60
11387;DHT22;5748;53.102;8.456;2023-06-10T07:47:43;24.30;47.60
11387;DHT22;5748;53.102;8.456;2023-06-10T07:50:10;24.30;47.70
11387;DHT22;5748;53.102;8.456;2023-06-10T07:52:37;24.60;48.00
11387;DHT22;5748;53.102;8.456;2023-06-10T07:55:06;24.40;48.20
11387;DHT22;5748;53.102;8.456;2023-06-10T07:57:33;24.70;49.10
11387;DHT22;5748;53.102;8.456;2023-06-10T08:00:02;25.10;49.90
11387;DHT22;5748;53.102;8.456;2023-06-10T08:02:30;25.60;50.50
11387;DHT22;5748;53.102;8.456;2023-06-10T08:04:57;26.20;50.60
11387;DHT22;5748;53.102;8.456;2023-06-10T08:07:24;27.10;50.50
11387;DHT22;5748;53.102;8.456;2023-06-10T08:09:51;27.80;50.30
11387;DHT22;5748;53.102;8.456;2023-06-10T08:12:19;28.60;49.80
11387;DHT22;5748;53.102;8.456;2023-06-10T08:14:46;29.30;48.70
11387;DHT22;5748;53.102;8.456;2023-06-10T08:17:13;30.00;48.20
11387;DHT22;5748;53.102;8.456;2023-06-10T08:19:40;30.60;47.70
11387;DHT22;5748;53.102;8.456;2023-06-10T08:22:07;31.20;47.30
11387;DHT22;5748;53.102;8.456;2023-06-10T08:24:35;31.70;46.70
11387;DHT22;5748;53.102;8.456;2023-06-10T08:27:02;32.20;45.40
11387;DHT22;5748;53.102;8.456;2023-06-10T08:29:32;32.60;45.20
11387;DHT22;5748;53.102;8.456;2023-06-10T08:31:59;33.00;44.50
11387;DHT22;5748;53.102;8.456;2023-06-10T08:34:26;33.30;44.40
11387;DHT22;5748;53.102;8.456;2023-06-10T08:36:53;33.60;44.30
11387;DHT22;5748;53.102;8.456;2023-06-10T08:39:21;34.00;44.20
11387;DHT22;5748;53.102;8.456;2023-06-10T08:41:56;34.40;43.90
11387;DHT22;5748;53.102;8.456;2023-06-10T08:44:28;34.60;43.00
11387;DHT22;5748;53.102;8.456;2023-06-10T08:46:59;34.70;41.90
11387;DHT22;5748;53.102;8.456;2023-06-10T08:49:27;34.50;40.80
11387;DHT22;5748;53.102;8.456;2023-06-10T08:51:59;34.10;40.50
11387;DHT22;5748;53.102;8.456;2023-06-10T08:54:28;33.70;40.30
11387;DHT22;5748;53.102;8.456;2023-06-10T08:56:58;33.30;40.70
11387;DHT22;5748;53.102;8.456;2023-06-10T08:59:26;32.80;40.30
11387;DHT22;5748;53.102;8.456;2023-06-10T09:01:53;32.50;41.30
11387;DHT22;5748;53.102;8.456;2023-06-10T09:04:24;32.00;40.60
11387;DHT22;5748;53.102;8.456;2023-06-10T09:06:51;31.50;40.50
11387;DHT22;5748;53.102;8.456;2023-06-10T09:09:19;31.20;41.00
11387;DHT22;5748;53.102;8.456;2023-06-10T09:11:46;30.90;41.30
11387;DHT22;5748;53.102;8.456;2023-06-10T09:14:14;30.70;41.80
11387;DHT22;5748;53.102;8.456;2023-06-10T09:16:42;30.50;42.40
11387;DHT22;5748;53.102;8.456;2023-06-10T09:19:11;30.40;43.20
11387;DHT22;5748;53.102;8.456;2023-06-10T09:21:39;30.50;44.00
11387;DHT22;5748;53.102;8.456;2023-06-10T09:24:06;30.60;45.00
11387;DHT22;5748;53.102;8.456;2023-06-10T09:26:33;30.90;46.00
11387;DHT22;5748;53.102;8.456;2023-06-10T09:29:03;31.60;46.50
11387;DHT22;5748;53.102;8.456;2023-06-10T09:31:32;32.40;46.50
11387;DHT22;5748;53.102;8.456;2023-06-10T09:34:08;33.20;46.80
11387;DHT22;5748;53.102;8.456;2023-06-10T09:36:36;34.20;45.60
11387;DHT22;5748;53.102;8.456;2023-06-10T09:39:13;35.00;46.00
11387;DHT22;5748;53.102;8.456;2023-06-10T09:41:47;35.90;45.40
11387;DHT22;5748;53.102;8.456;2023-06-10T09:44:15;36.80;44.20
11387;DHT22;5748;53.102;8.456;2023-06-10T10:38:12;45.00;33.40
11387;DHT22;5748;53.102;8.456;2023-06-10T10:40:40;45.10;32.00
11387;DHT22;5748;53.102;8.456;2023-06-10T10:43:09;45.20;31.20
11387;DHT22;5748;53.102;8.456;2023-06-10T10:45:36;45.10;31.60
11387;DHT22;5748;53.102;8.456;2023-06-10T10:48:07;45.00;31.20
11387;DHT22;5748;53.102;8.456;2023-06-10T10:50:37;45.00;30.70
11387;DHT22;5748;53.102;8.456;2023-06-10T10:53:07;44.90;30.90
11387;DHT22;5748;53.102;8.456;2023-06-10T10:55:36;45.00;30.70
11387;DHT22;5748;53.102;8.456;2023-06-10T10:58:04;45.10;29.80
11387;DHT22;5748;53.102;8.456;2023-06-10T11:00:33;45.10;30.70
11387;DHT22;5748;53.102;8.456;2023-06-10T11:03:05;45.10;30.30
11387;DHT22;5748;53.102;8.456;2023-06-10T11:05:38;45.20;30.20
11387;DHT22;5748;53.102;8.456;2023-06-10T11:08:07;45.30;29.50
11387;DHT22;5748;53.102;8.456;2023-06-10T11:10:37;45.30;29.50
11387;DHT22;5748;53.102;8.456;2023-06-10T11:13:09;45.40;29.40
11387;DHT22;5748;53.102;8.456;2023-06-10T11:15:39;45.50;28.90
11387;DHT22;5748;53.102;8.456;2023-06-10T11:18:20;45.60;28.90
11387;DHT22;5748;53.102;8.456;2023-06-10T11:20:57;45.60;29.00
11387;DHT22;5748;53.102;8.456;2023-06-10T11:23:30;45.80;28.50
11387;DHT22;5748;53.102;8.456;2023-06-10T11:26:13;45.90;29.00
11387;DHT22;5748;53.102;8.456;2023-06-10T11:29:16;46.20;27.90
11387;DHT22;5748;53.102;8.456;2023-06-10T11:31:49;46.40;28.70
11387;DHT22;5748;53.102;8.456;2023-06-10T11:34:22;46.50;28.30
11387;DHT22;5748;53.102;8.456;2023-06-10T11:36:51;46.60;27.90
11387;DHT22;5748;53.102;8.456;2023-06-10T11:39:29;46.70;28.00
11387;DHT22;5748;53.102;8.456;2023-06-10T11:41:58;46.90;27.80
11387;DHT22;5748;53.102;8.456;2023-06-10T11:44:27;47.00;27.60
11387;DHT22;5748;53.102;8.456;2023-06-10T11:46:57;47.20;27.30
11387;DHT22;5748;53.102;8.456;2023-06-10T11:49:24;47.30;27.40
11387;DHT22;5748;53.102;8.456;2023-06-10T11:51:51;47.40;26.70
11387;DHT22;5748;53.102;8.456;2023-06-10T11:54:18;47.50;26.80
11387;DHT22;5748;53.102;8.456;2023-06-10T11:56:46;47.60;26.70
11387;DHT22;5748;53.102;8.456;2023-06-10T11:59:15;47.60;26.90
11387;DHT22;5748;53.102;8.456;2023-06-10T12:01:43;47.80;26.50
11387;DHT22;5748;53.102;8.456;2023-06-10T12:04:12;47.80;26.50
11387;DHT22;5748;53.102;8.456;2023-06-10T12:06:41;47.90;26.50
11387;DHT22;5748;53.102;8.456;2023-06-10T12:09:17;47.90;25.80
11387;DHT22;5748;53.102;8.456;2023-06-10T12:11:45;47.70;24.80
11387;DHT22;5748;53.102;8.456;2023-06-10T12:17:17;47.40;24.70
11387;DHT22;5748;53.102;8.456;2023-06-10T12:19:44;47.30;25.30
11387;DHT22;5748;53.102;8.456;2023-06-10T12:22:10;47.20;25.30
11387;DHT22;5748;53.102;8.456;2023-06-10T12:24:44;47.20;25.20
11387;DHT22;5748;53.102;8.456;2023-06-10T12:27:11;47.20;24.30
11387;DHT22;5748;53.102;8.456;2023-06-10T12:29:50;47.00;24.10
11387;DHT22;5748;53.102;8.456;2023-06-10T12:32:19;46.80;23.50
11387;DHT22;5748;53.102;8.456;2023-06-10T12:34:48;46.60;24.00
11387;DHT22;5748;53.102;8.456;2023-06-10T12:37:17;46.30;23.50
11387;DHT22;5748;53.102;8.456;2023-06-10T12:39:51;45.90;23.30
11387;DHT22;5748;53.102;8.456;2023-06-10T12:42:21;45.50;23.10
11387;DHT22;5748;53.102;8.456;2023-06-10T12:44:53;44.90;23.20
11387;DHT22;5748;53.102;8.456;2023-06-10T12:47:29;44.40;22.90
11387;DHT22;5748;53.102;8.456;2023-06-10T12:49:58;43.80;22.70
11387;DHT22;5748;53.102;8.456;2023-06-10T12:52:25;43.30;23.00
11387;DHT22;5748;53.102;8.456;2023-06-10T12:54:52;42.80;22.70
11387;DHT22;5748;53.102;8.456;2023-06-10T12:57:20;42.30;22.50
11387;DHT22;5748;53.102;8.456;2023-06-10T12:59:47;41.80;22.60
11387;DHT22;5748;53.102;8.456;2023-06-10T13:02:19;41.30;22.70
11387;DHT22;5748;53.102;8.456;2023-06-10T13:04:49;40.80;22.50
11387;DHT22;5748;53.102;8.456;2023-06-10T13:07:17;40.30;22.20
11387;DHT22;5748;53.102;8.456;2023-06-10T13:09:44;39.80;22.00
11387;DHT22;5748;53.102;8.456;2023-06-10T13:12:14;39.30;22.00
11387;DHT22;5748;53.102;8.456;2023-06-10T13:14:43;38.70;22.40
11387;DHT22;5748;53.102;8.456;2023-06-10T13:17:10;38.30;22.50
11387;DHT22;5748;53.102;8.456;2023-06-10T13:19:38;37.90;22.80
11387;DHT22;5748;53.102;8.456;2023-06-10T13:22:05;37.50;23.10
11387;DHT22;5748;53.102;8.456;2023-06-10T13:24:32;37.40;23.50
11387;DHT22;5748;53.102;8.456;2023-06-10T13:26:59;37.00;23.60
11387;DHT22;5748;53.102;8.456;2023-06-10T13:29:26;36.80;23.90
11387;DHT22;5748;53.102;8.456;2023-06-10T13:31:53;36.70;23.80
11387;DHT22;5748;53.102;8.456;2023-06-10T13:34:20;36.60;23.90
11387;DHT22;5748;53.102;8.456;2023-06-10T13:36:48;36.50;23.90
11387;DHT22;5748;53.102;8.456;2023-06-10T13:39:15;36.40;24.00
11387;DHT22;5748;53.102;8.456;2023-06-10T13:41:43;36.40;24.10
11387;DHT22;5748;53.102;8.456;2023-06-10T13:44:09;36.20;24.20
11387;DHT22;5748;53.102;8.456;2023-06-10T13:46:36;36.10;24.00
11387;DHT22;5748;53.102;8.456;2023-06-10T13:49:03;36.10;24.00
11387;DHT22;5748;53.102;8.456;2023-06-10T13:51:30;36.00;23.90
11387;DHT22;5748;53.102;8.456;2023-06-10T13:53:59;35.80;23.90
11387;DHT22;5748;53.102;8.456;2023-06-10T13:56:25;35.70;23.90
11387;DHT22;5748;53.102;8.456;2023-06-10T13:58:52;35.70;24.10
11387;DHT22;5748;53.102;8.456;2023-06-10T14:01:20;35.60;24.60
11387;DHT22;5748;53.102;8.456;2023-06-10T14:03:47;35.50;24.20
11387;DHT22;5748;53.102;8.456;2023-06-10T14:06:14;35.40;24.20
11387;DHT22;5748;53.102;8.456;2023-06-10T14:08:43;35.40;24.30
11387;DHT22;5748;53.102;8.456;2023-06-10T14:11:13;35.20;24.90
11387;DHT22;5748;53.102;8.456;2023-06-10T14:13:43;35.00;25.00
11387;DHT22;5748;53.102;8.456;2023-06-10T14:16:10;35.00;24.70
11387;DHT22;5748;53.102;8.456;2023-06-10T14:18:37;35.00;24.70
11387;DHT22;5748;53.102;8.456;2023-06-10T14:21:04;35.00;25.80
11387;DHT22;5748;53.102;8.456;2023-06-10T14:23:31;34.90;25.30
11387;DHT22;5748;53.102;8.456;2023-06-10T14:25:58;34.90;25.40
11387;DHT22;5748;53.102;8.456;2023-06-10T14:28:48;34.80;25.10
11387;DHT22;5748;53.102;8.456;2023-06-10T14:31:15;34.70;25.20
11387;DHT22;5748;53.102;8.456;2023-06-10T14:33:43;34.70;25.30
11387;DHT22;5748;53.102;8.456;2023-06-10T14:36:10;34.50;26.00
11387;DHT22;5748;53.102;8.456;2023-06-10T14:38:37;34.60;25.60
11387;DHT22;5748;53.102;8.456;2023-06-10T14:41:04;34.50;25.20
11387;DHT22;5748;53.102;8.456;2023-06-10T14:43:31;34.50;25.80
11387;DHT22;5748;53.102;8.456;2023-06-10T14:45:59;34.50;25.60
11387;DHT22;5748;53.102;8.456;2023-06-10T14:48:26;34.50;25.40
11387;DHT22;5748;53.102;8.456;2023-06-10T14:50:53;34.40;25.40
11387;DHT22;5748;53.102;8.456;2023-06-10T14:53:20;34.40;25.50
11387;DHT22;5748;53.102;8.456;2023-06-10T14:55:47;34.30;25.50
11387;DHT22;5748;53.102;8.456;2023-06-10T14:58:15;34.20;25.60
11387;DHT22;5748;53.102;8.456;2023-06-10T15:00:42;34.10;25.60
11387;DHT22;5748;53.102;8.456;2023-06-10T15:03:11;34.10;26.80
11387;DHT22;5748;53.102;8.456;2023-06-10T15:05:38;34.20;26.00
11387;DHT22;5748;53.102;8.456;2023-06-10T15:08:05;34.10;26.10
11387;DHT22;5748;53.102;8.456;2023-06-10T15:10:32;34.10;26.00
11387;DHT22;5748;53.102;8.456;2023-06-10T15:12:59;34.00;25.90
11387;DHT22;5748;53.102;8.456;2023-06-10T15:15:26;34.00;26.20
11387;DHT22;5748;53.102;8.456;2023-06-10T15:17:53;34.00;26.20
11387;DHT22;5748;53.102;8.456;2023-06-10T15:20:22;34.00;26.40
11387;DHT22;5748;53.102;8.456;2023-06-10T15:22:49;34.10;26.50
11387;DHT22;5748;53.102;8.456;2023-06-10T15:25:16;34.00;26.50
11387;DHT22;5748;53.102;8.456;2023-06-10T15:27:43;33.90;26.30
11387;DHT22;5748;53.102;8.456;2023-06-10T15:30:10;33.90;26.40
11387;DHT22;5748;53.102;8.456;2023-06-10T15:32:37;33.90;26.50
11387;DHT22;5748;53.102;8.456;2023-06-10T15:35:05;34.50;26.90
11387;DHT22;5748;53.102;8.456;2023-06-10T15:37:34;33.90;26.80
11387;DHT22;5748;53.102;8.456;2023-06-10T15:40:01;34.00;26.90
11387;DHT22;5748;53.102;8.456;2023-06-10T15:42:28;34.00;26.80
11387;DHT22;5748;53.102;8.456;2023-06-10T15:44:55;34.00;27.30
11387;DHT22;5748;53.102;8.456;2023-06-10T15:47:22;34.00;27.40
11387;DHT22;5748;53.102;8.456;2023-06-10T15:49:49;33.90;27.10
11387;DHT22;5748;53.102;8.456;2023-06-10T15:52:16;34.00;27.60
11387;DHT22;5748;53.102;8.456;2023-06-10T15:54:45;33.90;27.40
11387;DHT22;5748;53.102;8.456;2023-06-10T15:57:12;33.90;26.90
11387;DHT22;5748;53.102;8.456;2023-06-10T15:59:39;33.90;26.90
11387;DHT22;5748;53.102;8.456;2023-06-10T16:02:06;33.90;27.00
11387;DHT22;5748;53.102;8.456;2023-06-10T16:04:33;33.80;27.10
11387;DHT22;5748;53.102;8.456;2023-06-10T16:07:02;33.80;27.30
11387;DHT22;5748;53.102;8.456;2023-06-10T16:09:29;33.70;27.90
11387;DHT22;5748;53.102;8.456;2023-06-10T16:11:57;33.70;27.80
11387;DHT22;5748;53.102;8.456;2023-06-10T16:14:24;33.70;28.70
11387;DHT22;5748;53.102;8.456;2023-06-10T16:16:52;33.80;28.30
11387;DHT22;5748;53.102;8.456;2023-06-10T16:19:19;33.70;28.10
11387;DHT22;5748;53.102;8.456;2023-06-10T16:21:46;33.70;28.40
11387;DHT22;5748;53.102;8.456;2023-06-10T16:24:13;33.60;28.00
11387;DHT22;5748;53.102;8.456;2023-06-10T16:26:40;33.70;27.80
11387;DHT22;5748;53.102;8.456;2023-06-10T16:29:09;33.60;27.80
11387;DHT22;5748;53.102;8.456;2023-06-10T16:31:36;33.60;28.20
11387;DHT22;5748;53.102;8.456;2023-06-10T16:34:03;33.60;27.60
11387;DHT22;5748;53.102;8.456;2023-06-10T16:36:30;33.50;27.40
11387;DHT22;5748;53.102;8.456;2023-06-10T16:38:57;33.50;27.80
11387;DHT22;5748;53.102;8.456;2023-06-10T16:41:24;33.40;28.50
11387;DHT22;5748;53.102;8.456;2023-06-10T16:43:51;33.40;28.00
11387;DHT22;5748;53.102;8.456;2023-06-10T16:46:19;33.40;28.10
11387;DHT22;5748;53.102;8.456;2023-06-10T16:48:48;33.40;28.20